Time;durP1;ratioP1;P1;durP2;ratioP2;P2;SDS_P1;SDS_P2;PMS_P1;PMS_P2;Temp;Humidity;BMP_temperature;BMP_pressure;BME280_temperature;BME280_humidity;BME280_pressure;Samples;Min_cycle;Max_cycle;Signal;HPM_P1;HPM_P2
2022/11/25 00:00:05;;;;;;;25.13;8.00;;;;;;;;;;7401425;19;20325;-75
2022/11/25 00:02:30;;;;;;;18.52;8.52;;;;;;;;;;7402742;19;20119;-75
2022/11/25 00:04:55;;;;;;;22.80;8.32;;;;;;;;;;7402700;19;20384;-75
2022/11/25 00:07:21;;;;;;;20.92;8.40;;;;;;;;;;7400808;19;20016;-75
2022/11/25 00:09:46;;;;;;;23.27;8.15;;;;;;;;;;7402605;19;20019;-75
2022/11/25 00:12:11;;;;;;;19.67;7.63;;;;;;;;;;7393111;19;19999;-75
2022/11/25 00:14:37;;;;;;;21.48;8.20;;;;;;;;;;7395479;19;20007;-75
2022/11/25 00:17:02;;;;;;;29.77;9.32;;;;;;;;;;7393848;19;20037;-76
2022/11/25 00:19:27;;;;;;;19.77;8.68;;;;;;;;;;7395449;19;20470;-75
2022/11/25 00:21:52;;;;;;;27.40;9.35;;;;;;;;;;7397756;19;20070;-75
2022/11/25 00:24:18;;;;;;;73.40;20.65;;;;;;;;;;7395208;19;20464;-74
2022/11/25 00:26:43;;;;;;;39.70;13.00;;;;;;;;;;7395199;19;20351;-76
2022/11/25 00:29:10;;;;;;;33.10;13.55;;;;;;;;;;7394936;19;20456;-75
2022/11/25 00:31:38;;;;;;;38.80;15.27;;;;;;;;;;7394699;19;20322;-76
2022/11/25 00:34:03;;;;;;;31.08;12.07;;;;;;;;;;7395140;19;20579;-76
2022/11/25 00:36:31;;;;;;;18.77;9.20;;;;;;;;;;7392271;19;19990;-76
2022/11/25 00:38:59;;;;;;;23.52;8.80;;;;;;;;;;7394628;19;19995;-75
2022/11/25 00:46:55;;;;;;;16.25;8.35;;;;;;;;;;7393235;19;20017;-75
2022/11/25 00:49:20;;;;;;;20.45;8.30;;;;;;;;;;7394225;19;20448;-75
2022/11/25 00:51:46;;;;;;;25.38;8.52;;;;;;;;;;7393682;19;19999;-75
2022/11/25 00:54:11;;;;;;;17.83;8.23;;;;;;;;;;7394917;19;20027;-75
2022/11/25 00:56:37;;;;;;;21.02;8.13;;;;;;;;;;7393406;19;20015;-75
2022/11/25 00:59:02;;;;;;;16.60;9.13;;;;;;;;;;7394113;19;19998;-75
2022/11/25 01:01:28;;;;;;;21.08;8.48;;;;;;;;;;7393693;19;20003;-75
2022/11/25 01:03:53;;;;;;;22.33;8.70;;;;;;;;;;7393753;19;20019;-75
2022/11/25 01:06:20;;;;;;;20.23;8.52;;;;;;;;;;7388580;19;20016;-75
2022/11/25 01:08:45;;;;;;;19.90;7.90;;;;;;;;;;7397873;19;20031;-75
2022/11/25 01:11:13;;;;;;;15.43;7.40;;;;;;;;;;7393870;19;19999;-75
2022/11/25 01:13:39;;;;;;;19.00;7.88;;;;;;;;;;7393967;19;20005;-75
2022/11/25 01:16:06;;;;;;;25.08;8.25;;;;;;;;;;7393089;19;20030;-75
2022/11/25 01:18:32;;;;;;;21.60;7.97;;;;;;;;;;7390976;19;20003;-75
2022/11/25 01:21:15;;;;;;;19.40;8.23;;;;;;;;;;7392351;19;20026;-75
2022/11/25 01:23:41;;;;;;;16.83;7.32;;;;;;;;;;7392490;19;19999;-75
2022/11/25 01:26:10;;;;;;;22.95;7.35;;;;;;;;;;7392992;19;19990;-75
2022/11/25 01:28:36;;;;;;;20.02;7.68;;;;;;;;;;7391479;19;20026;-75
2022/11/25 01:31:02;;;;;;;19.23;7.57;;;;;;;;;;7392772;19;19996;-75
2022/11/25 01:33:31;;;;;;;21.65;8.32;;;;;;;;;;7391185;19;19998;-75
2022/11/25 01:35:59;;;;;;;19.20;7.57;;;;;;;;;;7393054;19;20023;-75
2022/11/25 01:38:24;;;;;;;17.83;7.32;;;;;;;;;;7390261;19;20082;-74
2022/11/25 01:40:49;;;;;;;16.25;8.50;;;;;;;;;;7392465;19;20474;-75
2022/11/25 01:43:15;;;;;;;15.63;7.38;;;;;;;;;;7392304;19;20007;-75
2022/11/25 01:45:40;;;;;;;17.15;7.03;;;;;;;;;;7390542;19;19999;-74
2022/11/25 01:48:13;;;;;;;20.35;7.50;;;;;;;;;;7390562;19;20002;-75
2022/11/25 01:50:40;;;;;;;23.25;7.38;;;;;;;;;;7392446;19;20037;-75
2022/11/25 01:53:09;;;;;;;28.58;8.82;;;;;;;;;;7390840;19;19998;-75
2022/11/25 01:55:37;;;;;;;17.17;6.78;;;;;;;;;;7391963;19;20011;-74
2022/11/25 01:58:11;;;;;;;16.00;5.97;;;;;;;;;;7390007;19;19998;-75
2022/11/25 02:00:36;;;;;;;20.45;6.95;;;;;;;;;;7392414;19;20555;-74
2022/11/25 02:03:02;;;;;;;18.02;7.30;;;;;;;;;;7391930;19;20019;-74
2022/11/25 02:05:55;;;;;;;18.20;6.80;;;;;;;;;;7391724;19;19991;-75
2022/11/25 02:08:23;;;;;;;17.92;6.90;;;;;;;;;;7389948;19;20086;-74
2022/11/25 02:10:50;;;;;;;17.63;6.47;;;;;;;;;;7391514;19;20078;-75
2022/11/25 02:13:16;;;;;;;16.30;5.90;;;;;;;;;;7390201;19;19995;-74
2022/11/25 02:15:41;;;;;;;12.85;5.82;;;;;;;;;;7391516;19;20386;-74
2022/11/25 02:18:06;;;;;;;14.85;6.38;;;;;;;;;;7389464;19;20305;-75
2022/11/25 02:20:32;;;;;;;20.55;6.60;;;;;;;;;;7391909;19;19995;-75
2022/11/25 02:23:25;;;;;;;24.65;8.18;;;;;;;;;;7391442;19;20005;-75
2022/11/25 02:25:51;;;;;;;22.27;7.88;;;;;;;;;;7391098;19;20007;-75
2022/11/25 02:28:20;;;;;;;22.13;8.00;;;;;;;;;;7388808;19;20510;-75
2022/11/25 02:30:46;;;;;;;31.33;10.25;;;;;;;;;;7391270;19;20080;-75
2022/11/25 02:33:12;;;;;;;21.48;8.70;;;;;;;;;;7389503;19;20002;-75
2022/11/25 02:35:40;;;;;;;31.17;9.05;;;;;;;;;;7389018;19;19994;-75
2022/11/25 02:38:15;;;;;;;21.27;8.07;;;;;;;;;;7389056;19;19998;-75
2022/11/25 02:40:48;;;;;;;29.05;9.45;;;;;;;;;;7390765;19;19994;-75
2022/11/25 02:43:14;;;;;;;27.05;8.48;;;;;;;;;;7391213;19;20109;-75
2022/11/25 02:45:49;;;;;;;28.38;8.98;;;;;;;;;;7390821;19;20107;-75
2022/11/25 02:48:14;;;;;;;28.20;9.60;;;;;;;;;;7390765;19;20470;-75
2022/11/25 02:50:40;;;;;;;27.92;9.05;;;;;;;;;;7390468;19;20033;-75
2022/11/25 02:53:05;;;;;;;42.15;10.90;;;;;;;;;;7389501;19;20016;-75
2022/11/25 02:55:31;;;;;;;25.17;9.50;;;;;;;;;;7390261;19;20464;-75
2022/11/25 02:57:56;;;;;;;23.58;8.05;;;;;;;;;;7388383;19;20346;-75
2022/11/25 03:00:21;;;;;;;24.95;9.63;;;;;;;;;;7389945;19;20007;-76
2022/11/25 03:02:51;;;;;;;31.83;9.50;;;;;;;;;;7388777;19;20018;-75
2022/11/25 03:05:16;;;;;;;23.58;10.35;;;;;;;;;;7392574;19;20002;-75
2022/11/25 03:07:41;;;;;;;58.20;11.40;;;;;;;;;;7388606;19;20009;-75
2022/11/25 03:10:07;;;;;;;33.03;10.07;;;;;;;;;;7390032;19;20024;-75
2022/11/25 03:12:32;;;;;;;35.78;10.57;;;;;;;;;;7386971;19;20444;-75
2022/11/25 03:14:57;;;;;;;30.08;11.30;;;;;;;;;;7389755;19;19998;-75
2022/11/25 03:17:23;;;;;;;32.90;11.45;;;;;;;;;;7391517;19;20005;-75
2022/11/25 03:19:48;;;;;;;25.42;10.13;;;;;;;;;;7391191;19;20046;-75
2022/11/25 03:22:13;;;;;;;35.35;11.02;;;;;;;;;;7390002;19;20012;-75
2022/11/25 03:24:39;;;;;;;24.48;10.02;;;;;;;;;;7389476;19;20464;-75
2022/11/25 03:27:04;;;;;;;28.77;11.25;;;;;;;;;;7387037;19;20432;-75
2022/11/25 03:29:29;;;;;;;30.33;11.18;;;;;;;;;;7389116;19;20384;-76
2022/11/25 03:31:54;;;;;;;24.60;10.85;;;;;;;;;;7388763;19;20011;-76
2022/11/25 03:34:20;;;;;;;23.58;10.30;;;;;;;;;;7389434;19;19994;-75
2022/11/25 03:36:45;;;;;;;22.20;10.30;;;;;;;;;;7388177;19;20461;-75
2022/11/25 03:39:11;;;;;;;23.73;10.55;;;;;;;;;;7388957;19;20002;-75
2022/11/25 03:41:36;;;;;;;22.98;10.50;;;;;;;;;;7388978;19;20018;-75
2022/11/25 03:44:01;;;;;;;23.83;10.38;;;;;;;;;;7389074;19;20019;-75
2022/11/25 03:46:27;;;;;;;25.02;10.75;;;;;;;;;;7392706;19;20456;-76
2022/11/25 03:48:52;;;;;;;26.30;10.88;;;;;;;;;;7396088;19;20106;-75
2022/11/25 03:51:17;;;;;;;23.85;10.98;;;;;;;;;;7396131;19;20005;-75
2022/11/25 03:53:43;;;;;;;20.63;10.45;;;;;;;;;;7393698;19;20007;-76
2022/11/25 03:56:08;;;;;;;28.10;10.85;;;;;;;;;;7395985;19;19998;-76
2022/11/25 03:58:34;;;;;;;21.90;11.23;;;;;;;;;;7392566;19;20003;-75
2022/11/25 04:01:02;;;;;;;27.75;11.68;;;;;;;;;;7396047;19;20009;-75
2022/11/25 04:03:28;;;;;;;22.10;10.95;;;;;;;;;;7395788;19;20023;-75
2022/11/25 04:05:53;;;;;;;28.20;11.27;;;;;;;;;;7395888;19;19994;-75
2022/11/25 04:08:19;;;;;;;21.48;10.38;;;;;;;;;;7392939;19;19990;-75
2022/11/25 04:10:45;;;;;;;26.00;10.43;;;;;;;;;;7394158;19;20023;-75
2022/11/25 04:13:10;;;;;;;23.85;10.73;;;;;;;;;;7393522;19;20362;-75
2022/11/25 04:15:35;;;;;;;20.80;11.02;;;;;;;;;;7395845;19;20002;-75
2022/11/25 04:18:01;;;;;;;23.80;11.32;;;;;;;;;;7392953;19;20423;-75
2022/11/25 04:20:26;;;;;;;23.05;9.63;;;;;;;;;;7395644;19;20003;-75
2022/11/25 04:22:51;;;;;;;25.45;11.20;;;;;;;;;;7393542;19;20523;-75
2022/11/25 04:25:17;;;;;;;22.45;10.55;;;;;;;;;;7399379;19;19999;-75
2022/11/25 04:27:42;;;;;;;22.48;11.13;;;;;;;;;;7392835;19;20014;-75
2022/11/25 04:30:09;;;;;;;19.02;10.27;;;;;;;;;;7395395;19;20002;-75
2022/11/25 04:32:36;;;;;;;22.02;10.77;;;;;;;;;;7393891;19;20003;-75
2022/11/25 04:35:02;;;;;;;25.02;10.05;;;;;;;;;;7395164;19;19995;-75
2022/11/25 04:37:27;;;;;;;23.38;10.13;;;;;;;;;;7392629;19;20302;-75
2022/11/25 04:39:52;;;;;;;23.80;10.70;;;;;;;;;;7394528;19;20087;-75
2022/11/25 04:42:38;;;;;;;21.52;10.32;;;;;;;;;;7395164;19;20452;-75
2022/11/25 04:45:14;;;;;;;24.00;10.18;;;;;;;;;;7395093;19;20344;-76
2022/11/25 04:47:39;;;;;;;24.98;10.38;;;;;;;;;;7392491;19;20711;-75
2022/11/25 04:50:07;;;;;;;18.23;10.13;;;;;;;;;;7394523;19;19995;-75
2022/11/25 04:52:33;;;;;;;19.98;9.75;;;;;;;;;;7392993;19;20002;-76
2022/11/25 04:54:59;;;;;;;20.00;9.52;;;;;;;;;;7393987;19;19998;-75
2022/11/25 04:57:24;;;;;;;17.70;9.65;;;;;;;;;;7389364;19;20002;-75
2022/11/25 04:59:50;;;;;;;20.05;8.95;;;;;;;;;;7393847;19;19999;-75
2022/11/25 05:02:18;;;;;;;19.73;8.95;;;;;;;;;;7393927;19;20030;-76
2022/11/25 05:04:46;;;;;;;21.90;9.10;;;;;;;;;;7394358;19;19998;-76
2022/11/25 05:07:12;;;;;;;18.27;9.02;;;;;;;;;;7392166;19;20460;-76
2022/11/25 05:09:38;;;;;;;17.65;8.88;;;;;;;;;;7393829;19;19998;-76
2022/11/25 05:12:05;;;;;;;21.73;8.73;;;;;;;;;;7392961;19;20669;-76
2022/11/25 05:14:30;;;;;;;18.25;8.68;;;;;;;;;;7393415;19;19998;-76
2022/11/25 05:16:56;;;;;;;20.02;8.68;;;;;;;;;;7392158;19;19998;-76
2022/11/25 05:19:21;;;;;;;18.17;9.15;;;;;;;;;;7395580;19;20476;-76
2022/11/25 05:21:47;;;;;;;20.20;9.00;;;;;;;;;;7393404;19;19995;-76
2022/11/25 05:24:12;;;;;;;28.15;10.00;;;;;;;;;;7393741;19;20460;-76
2022/11/25 05:26:37;;;;;;;21.23;9.55;;;;;;;;;;7390330;19;20325;-76
2022/11/25 05:29:03;;;;;;;20.58;9.05;;;;;;;;;;7393672;19;20092;-76
2022/11/25 05:31:28;;;;;;;23.52;9.45;;;;;;;;;;7393032;19;20005;-76
2022/11/25 05:33:54;;;;;;;26.13;10.95;;;;;;;;;;7390967;19;19997;-76
2022/11/25 05:36:19;;;;;;;22.33;10.68;;;;;;;;;;7395101;19;20002;-76
2022/11/25 05:38:44;;;;;;;25.73;10.70;;;;;;;;;;7394632;19;20373;-76
2022/11/25 05:41:10;;;;;;;19.88;9.77;;;;;;;;;;7392476;19;20359;-75
2022/11/25 05:43:36;;;;;;;24.50;9.88;;;;;;;;;;7392478;19;20050;-74
2022/11/25 05:46:06;;;;;;;22.15;11.07;;;;;;;;;;7393242;19;20078;-74
2022/11/25 05:48:32;;;;;;;23.63;9.82;;;;;;;;;;7388938;19;20424;-75
2022/11/25 05:51:01;;;;;;;18.33;9.68;;;;;;;;;;7390798;19;20063;-75
2022/11/25 05:53:27;;;;;;;22.60;10.73;;;;;;;;;;7390542;19;20002;-75
2022/11/25 05:56:00;;;;;;;18.30;9.30;;;;;;;;;;7391908;19;19995;-76
2022/11/25 05:58:26;;;;;;;20.67;9.38;;;;;;;;;;7391250;19;20314;-75
2022/11/25 06:00:52;;;;;;;22.50;9.02;;;;;;;;;;7388354;19;20104;-75
2022/11/25 06:03:17;;;;;;;21.85;10.35;;;;;;;;;;7386090;19;20170;-76
2022/11/25 06:05:43;;;;;;;25.60;10.07;;;;;;;;;;7390266;19;20332;-75
2022/11/25 06:08:09;;;;;;;16.90;9.70;;;;;;;;;;7389167;19;20299;-76
2022/11/25 06:10:38;;;;;;;18.58;9.68;;;;;;;;;;7389819;19;19995;-75
2022/11/25 06:13:03;;;;;;;15.80;9.40;;;;;;;;;;7390234;19;20027;-75
2022/11/25 06:15:28;;;;;;;23.25;9.32;;;;;;;;;;7391449;19;20054;-75
2022/11/25 06:17:54;;;;;;;26.92;9.65;;;;;;;;;;7385447;19;20010;-75
2022/11/25 06:20:20;;;;;;;21.05;9.38;;;;;;;;;;7391293;19;20005;-75
2022/11/25 06:22:45;;;;;;;24.33;10.00;;;;;;;;;;7391658;19;19990;-76
2022/11/25 06:25:10;;;;;;;28.85;13.07;;;;;;;;;;7388867;19;19999;-75
2022/11/25 06:27:36;;;;;;;21.60;9.98;;;;;;;;;;7388139;19;20479;-75
2022/11/25 06:30:01;;;;;;;20.92;8.98;;;;;;;;;;7389993;19;20054;-75
2022/11/25 06:32:27;;;;;;;24.30;9.68;;;;;;;;;;7390152;19;20002;-75
2022/11/25 06:34:52;;;;;;;18.63;9.50;;;;;;;;;;7387903;19;19990;-75
2022/11/25 06:37:17;;;;;;;23.73;10.57;;;;;;;;;;7387165;19;19998;-75
2022/11/25 06:39:43;;;;;;;23.65;9.15;;;;;;;;;;7389660;19;20074;-76
2022/11/25 06:42:08;;;;;;;25.08;10.13;;;;;;;;;;7357706;19;20074;-76
2022/11/25 06:44:33;;;;;;;20.13;9.98;;;;;;;;;;7389282;19;19998;-76
2022/11/25 06:46:58;;;;;;;19.58;8.23;;;;;;;;;;7387295;19;20386;-76
2022/11/25 06:49:24;;;;;;;18.85;7.50;;;;;;;;;;7389789;19;20003;-76
2022/11/25 06:51:49;;;;;;;15.93;7.22;;;;;;;;;;7388062;19;20472;-76
2022/11/25 06:54:15;;;;;;;12.65;6.72;;;;;;;;;;7388360;19;20016;-75
2022/11/25 06:56:41;;;;;;;13.32;7.22;;;;;;;;;;7389029;19;20031;-76
2022/11/25 06:59:06;;;;;;;15.48;7.07;;;;;;;;;;7388597;19;19990;-76
2022/11/25 07:01:32;;;;;;;19.50;7.30;;;;;;;;;;7388881;19;19999;-76
2022/11/25 07:04:00;;;;;;;19.38;7.55;;;;;;;;;;7388190;19;20341;-76
2022/11/25 07:06:26;;;;;;;16.67;6.93;;;;;;;;;;7389101;19;20003;-75
2022/11/25 07:08:52;;;;;;;21.15;8.10;;;;;;;;;;7389947;19;20001;-75
2022/11/25 07:11:26;;;;;;;18.67;7.47;;;;;;;;;;7387697;19;20007;-76
2022/11/25 07:13:54;;;;;;;20.02;7.65;;;;;;;;;;7386552;19;20454;-76
2022/11/25 07:16:19;;;;;;;16.27;8.43;;;;;;;;;;7386628;19;20028;-76
2022/11/25 07:18:44;;;;;;;25.13;8.20;;;;;;;;;;7389520;19;19998;-76
2022/11/25 07:21:14;;;;;;;18.10;7.68;;;;;;;;;;7391657;19;20452;-76
2022/11/25 07:23:41;;;;;;;14.18;7.15;;;;;;;;;;7397093;19;19994;-76
2022/11/25 07:26:12;;;;;;;22.00;9.18;;;;;;;;;;7395449;19;19994;-75
2022/11/25 07:28:38;;;;;;;;;;;;;;;;;;7393379;19;20026;-75
2022/11/25 07:31:16;;;;;;;15.65;7.32;;;;;;;;;;7397137;19;20306;-75
2022/11/25 07:33:42;;;;;;;18.23;7.60;;;;;;;;;;7397378;19;20359;-75
2022/11/25 07:36:10;;;;;;;22.00;7.32;;;;;;;;;;7396519;19;20001;-75
2022/11/25 07:38:36;;;;;;;15.68;7.45;;;;;;;;;;7393408;19;20504;-74
2022/11/25 07:41:14;;;;;;;16.92;7.85;;;;;;;;;;7396973;19;20024;-75
2022/11/25 07:43:42;;;;;;;16.50;7.40;;;;;;;;;;7396436;19;20218;-75
2022/11/25 07:46:22;;;;;;;13.50;7.32;;;;;;;;;;7395125;19;20507;-75
2022/11/25 07:48:48;;;;;;;17.45;6.50;;;;;;;;;;7397302;19;20030;-75
2022/11/25 07:51:27;;;;;;;20.70;7.82;;;;;;;;;;7393451;19;20018;-75
2022/11/25 07:53:54;;;;;;;21.35;7.82;;;;;;;;;;7390841;19;20122;-75
2022/11/25 07:56:20;;;;;;;16.85;6.70;;;;;;;;;;7394230;19;20482;-75
2022/11/25 07:58:46;;;;;;;23.20;6.90;;;;;;;;;;7394935;19;20025;-75
2022/11/25 08:01:13;;;;;;;18.48;7.05;;;;;;;;;;7394128;19;19990;-75
2022/11/25 08:03:40;;;;;;;13.52;6.28;;;;;;;;;;7394240;19;19998;-75
2022/11/25 08:06:14;;;;;;;14.57;6.30;;;;;;;;;;7393493;19;19998;-75
2022/11/25 08:08:40;;;;;;;13.63;6.20;;;;;;;;;;7392191;19;20002;-75
2022/11/25 08:11:12;;;;;;;15.02;6.82;;;;;;;;;;7395896;19;19998;-75
2022/11/25 08:13:38;;;;;;;15.65;5.82;;;;;;;;;;7389416;19;20005;-75
2022/11/25 08:16:04;;;;;;;19.65;6.45;;;;;;;;;;7393806;19;19998;-76
2022/11/25 08:18:30;;;;;;;14.80;6.32;;;;;;;;;;7383380;19;20021;-76
2022/11/25 08:21:00;;;;;;;12.68;6.40;;;;;;;;;;7393071;19;20007;-76
2022/11/25 08:23:26;;;;;;;11.65;5.82;;;;;;;;;;7392112;19;20002;-76
2022/11/25 08:25:52;;;;;;;12.38;5.57;;;;;;;;;;7395464;19;19995;-75
2022/11/25 08:28:17;;;;;;;15.98;5.72;;;;;;;;;;7391506;19;20022;-75
2022/11/25 08:30:42;;;;;;;14.65;6.00;;;;;;;;;;7395283;19;19999;-76
2022/11/25 08:33:08;;;;;;;11.65;5.63;;;;;;;;;;7387306;19;20002;-78
2022/11/25 08:35:36;;;;;;;13.88;6.80;;;;;;;;;;7393966;19;20010;-78
2022/11/25 08:38:07;;;;;;;14.45;6.40;;;;;;;;;;7390568;19;20030;-79
2022/11/25 08:40:34;;;;;;;18.37;6.50;;;;;;;;;;7395167;19;20006;-77
2022/11/25 08:43:00;;;;;;;14.00;6.40;;;;;;;;;;7393901;19;20263;-80
2022/11/25 08:45:26;;;;;;;13.73;6.93;;;;;;;;;;7393330;19;20011;-79
2022/11/25 08:47:51;;;;;;;15.30;6.05;;;;;;;;;;7391294;19;19998;-77
2022/11/25 08:50:17;;;;;;;18.35;7.10;;;;;;;;;;7393782;19;20004;-77
2022/11/25 08:52:42;;;;;;;14.38;6.47;;;;;;;;;;7390042;19;20002;-77
2022/11/25 08:55:07;;;;;;;11.38;6.18;;;;;;;;;;7394471;19;20002;-77
2022/11/25 08:57:33;;;;;;;12.90;6.70;;;;;;;;;;7391063;19;20005;-78
2022/11/25 08:59:59;;;;;;;12.68;6.25;;;;;;;;;;7393454;19;19995;-77
2022/11/25 09:02:24;;;;;;;14.40;7.22;;;;;;;;;;7392982;19;20011;-76
2022/11/25 09:04:49;;;;;;;17.52;7.88;;;;;;;;;;7394489;19;20070;-77
2022/11/25 09:07:15;;;;;;;23.45;8.38;;;;;;;;;;7389941;19;19998;-76
2022/11/25 09:09:41;;;;;;;15.35;7.15;;;;;;;;;;7390785;19;19994;-77
2022/11/25 09:12:06;;;;;;;18.17;8.15;;;;;;;;;;7393400;19;20017;-77
2022/11/25 09:14:32;;;;;;;21.98;8.05;;;;;;;;;;7393141;19;20009;-80
2022/11/25 09:16:57;;;;;;;21.30;7.90;;;;;;;;;;7392491;19;20005;-80
2022/11/25 09:19:22;;;;;;;15.10;7.57;;;;;;;;;;7390875;19;20006;-78
2022/11/25 09:21:48;;;;;;;16.20;7.38;;;;;;;;;;7392753;19;20003;-79
2022/11/25 09:24:13;;;;;;;20.95;8.10;;;;;;;;;;7391568;19;20397;-77
2022/11/25 09:26:39;;;;;;;16.35;7.45;;;;;;;;;;7392906;19;20002;-80
2022/11/25 09:29:06;;;;;;;16.70;7.78;;;;;;;;;;7392200;19;20011;-78
2022/11/25 09:31:31;;;;;;;17.20;8.50;;;;;;;;;;7389796;19;20010;-78
2022/11/25 09:33:57;;;;;;;18.20;7.90;;;;;;;;;;7388732;19;20005;-77
2022/11/25 09:36:23;;;;;;;23.30;8.15;;;;;;;;;;7392813;19;20551;-77
2022/11/25 09:38:49;;;;;;;18.02;7.50;;;;;;;;;;7393519;19;20510;-77
2022/11/25 09:47:30;;;;;;;18.52;7.50;;;;;;;;;;7389249;19;20348;-78
2022/11/25 09:50:31;;;;;;;18.98;8.30;;;;;;;;;;7391400;19;20002;-77
2022/11/25 09:53:08;;;;;;;15.05;7.53;;;;;;;;;;7388184;19;20015;-76
2022/11/25 09:55:46;;;;;;;23.23;8.13;;;;;;;;;;7392050;19;20104;-77
2022/11/25 09:58:23;;;;;;;14.35;6.97;;;;;;;;;;7389994;19;20019;-77
2022/11/25 10:00:50;;;;;;;13.65;7.72;;;;;;;;;;7392521;19;20015;-78
2022/11/25 10:03:39;;;;;;;15.77;9.05;;;;;;;;;;7389623;19;20004;-78
2022/11/25 10:06:16;;;;;;;19.58;8.43;;;;;;;;;;7393026;19;20010;-77
2022/11/25 10:08:46;;;;;;;17.90;8.52;;;;;;;;;;7391754;19;20014;-76
2022/11/25 10:11:41;;;;;;;16.58;7.93;;;;;;;;;;7390989;19;20416;-74
2022/11/25 10:14:14;;;;;;;16.52;7.28;;;;;;;;;;7390003;19;20105;-74
2022/11/25 10:17:04;;;;;;;13.68;8.15;;;;;;;;;;7391054;19;20007;-76
2022/11/25 10:19:45;;;;;;;18.75;8.27;;;;;;;;;;7390259;19;20023;-77
2022/11/25 10:22:26;;;;;;;20.63;8.60;;;;;;;;;;7392294;19;20005;-77
2022/11/25 10:24:58;;;;;;;16.50;7.72;;;;;;;;;;7391428;19;20007;-77
2022/11/25 10:28:08;;;;;;;15.10;6.82;;;;;;;;;;7389094;19;20061;-76
2022/11/25 10:30:58;;;;;;;15.85;7.05;;;;;;;;;;7390551;19;20008;-77
2022/11/25 10:33:31;;;;;;;16.65;6.80;;;;;;;;;;7389894;19;20009;-77
2022/11/25 10:36:06;;;;;;;15.82;7.35;;;;;;;;;;7390009;19;20002;-76
2022/11/25 10:38:47;;;;;;;14.68;7.50;;;;;;;;;;7388677;19;20306;-76
2022/11/25 10:41:17;;;;;;;15.00;7.17;;;;;;;;;;7388304;19;20062;-76
2022/11/25 10:43:44;;;;;;;14.20;6.75;;;;;;;;;;7388818;19;20002;-73
2022/11/25 10:46:34;;;;;;;12.75;7.05;;;;;;;;;;7390402;19;19994;-73
2022/11/25 10:49:13;;;;;;;12.82;6.25;;;;;;;;;;7390341;19;20483;-74
2022/11/25 10:51:46;;;;;;;11.45;6.30;;;;;;;;;;7390934;19;20006;-76
2022/11/25 10:54:16;;;;;;;13.23;6.30;;;;;;;;;;7389141;19;20002;-75
2022/11/25 10:57:02;;;;;;;13.53;6.13;;;;;;;;;;7388504;19;20030;-75
2022/11/25 10:59:33;;;;;;;13.48;5.65;;;;;;;;;;7389331;19;20007;-75
2022/11/25 11:02:27;;;;;;;10.73;5.20;;;;;;;;;;7389652;19;20015;-75
2022/11/25 11:05:04;;;;;;;13.23;6.15;;;;;;;;;;7389302;19;21339;-73
2022/11/25 11:07:41;;;;;;;15.55;6.47;;;;;;;;;;7386587;19;20006;-74
2022/11/25 11:10:19;;;;;;;15.27;6.15;;;;;;;;;;7386585;19;20010;-73
2022/11/25 11:13:04;;;;;;;11.82;6.18;;;;;;;;;;7385296;19;20006;-73
2022/11/25 11:15:46;;;;;;;14.10;6.32;;;;;;;;;;7388151;19;19999;-73
2022/11/25 11:18:35;;;;;;;12.02;5.85;;;;;;;;;;7383131;19;19994;-73
2022/11/25 11:21:01;;;;;;;14.20;6.00;;;;;;;;;;7390841;19;20015;-74
2022/11/25 11:23:28;;;;;;;14.60;5.72;;;;;;;;;;7386119;19;19994;-73
2022/11/25 11:26:03;;;;;;;13.90;6.50;;;;;;;;;;7390196;19;19995;-73
2022/11/25 11:28:37;;;;;;;12.68;6.45;;;;;;;;;;7383650;19;20001;-72
2022/11/25 11:31:06;;;;;;;12.88;6.10;;;;;;;;;;7388057;19;20019;-73
2022/11/25 11:33:34;;;;;;;12.35;5.63;;;;;;;;;;7377221;19;20035;-73
2022/11/25 11:36:28;;;;;;;11.25;5.05;;;;;;;;;;7378581;19;20006;-72
2022/11/25 11:39:00;;;;;;;16.17;5.05;;;;;;;;;;7381775;19;20002;-73
2022/11/25 11:41:48;;;;;;;11.95;4.38;;;;;;;;;;7376150;19;20014;-73
2022/11/25 11:44:38;;;;;;;11.50;4.43;;;;;;;;;;7375827;19;20472;-73
2022/11/25 11:47:24;;;;;;;9.35;4.72;;;;;;;;;;7376187;19;20027;-73
2022/11/25 11:50:01;;;;;;;8.55;4.13;;;;;;;;;;7383973;19;20010;-73
2022/11/25 11:52:30;;;;;;;9.15;4.32;;;;;;;;;;7380536;19;20007;-74
2022/11/25 11:55:04;;;;;;;8.50;3.90;;;;;;;;;;7383364;19;20093;-75
2022/11/25 11:57:43;;;;;;;9.35;4.43;;;;;;;;;;7382586;19;20010;-73
2022/11/25 12:00:12;;;;;;;13.07;4.43;;;;;;;;;;7381598;19;20009;-73
2022/11/25 12:03:11;;;;;;;11.02;4.53;;;;;;;;;;7385493;19;20043;-72
2022/11/25 12:05:37;;;;;;;9.23;3.90;;;;;;;;;;7378957;19;20006;-72
2022/11/25 12:08:08;;;;;;;10.40;3.95;;;;;;;;;;7384455;19;20005;-72
2022/11/25 12:10:45;;;;;;;14.07;4.35;;;;;;;;;;7387609;19;20033;-72
2022/11/25 12:13:16;;;;;;;14.18;4.65;;;;;;;;;;7383409;19;20351;-72
2022/11/25 12:15:47;;;;;;;12.10;6.78;;;;;;;;;;7389565;19;20031;-72
2022/11/25 12:18:25;;;;;;;13.40;6.00;;;;;;;;;;7387280;19;20002;-72
2022/11/25 12:21:01;;;;;;;12.48;4.22;;;;;;;;;;7389570;19;20031;-73
2022/11/25 12:23:53;;;;;;;13.57;4.45;;;;;;;;;;7392571;19;20483;-72
2022/11/25 12:26:27;;;;;;;11.25;4.38;;;;;;;;;;7394280;19;20002;-72
2022/11/25 12:29:06;;;;;;;11.38;4.32;;;;;;;;;;7395619;19;20065;-72
2022/11/25 12:31:40;;;;;;;9.43;3.60;;;;;;;;;;7392526;19;20506;-72
2022/11/25 12:34:26;;;;;;;9.02;4.00;;;;;;;;;;7391927;19;20015;-72
2022/11/25 12:36:55;;;;;;;9.65;4.30;;;;;;;;;;7392805;19;20096;-73
2022/11/25 12:39:35;;;;;;;9.30;4.00;;;;;;;;;;7390741;19;20072;-73
2022/11/25 12:42:04;;;;;;;9.43;3.80;;;;;;;;;;7390140;19;20009;-73
2022/11/25 12:45:02;;;;;;;13.77;4.50;;;;;;;;;;7388633;19;20005;-73
2022/11/25 12:47:28;;;;;;;10.18;3.40;;;;;;;;;;7390129;19;20007;-73
2022/11/25 12:49:55;;;;;;;8.57;3.67;;;;;;;;;;7390731;19;20019;-73
2022/11/25 12:52:32;;;;;;;8.10;3.63;;;;;;;;;;7389775;19;20007;-73
2022/11/25 12:55:19;;;;;;;8.57;3.70;;;;;;;;;;7387323;19;20041;-72
2022/11/25 12:57:52;;;;;;;10.25;4.07;;;;;;;;;;7388380;19;20445;-73
2022/11/25 13:00:23;;;;;;;12.80;4.30;;;;;;;;;;7390317;19;20013;-73
2022/11/25 13:03:11;;;;;;;6.65;3.40;;;;;;;;;;7390387;19;20010;-72
2022/11/25 13:05:48;;;;;;;13.45;3.47;;;;;;;;;;7390849;19;20002;-73
2022/11/25 13:08:22;;;;;;;8.57;3.67;;;;;;;;;;7387888;19;20006;-73
2022/11/25 13:11:15;;;;;;;8.82;3.42;;;;;;;;;;7390033;19;20461;-73
2022/11/25 13:14:01;;;;;;;8.15;3.38;;;;;;;;;;7392026;19;20057;-73
2022/11/25 13:16:27;;;;;;;11.18;3.55;;;;;;;;;;7389232;19;20028;-73
2022/11/25 13:18:54;;;;;;;10.95;3.70;;;;;;;;;;7388426;19;19998;-73
2022/11/25 13:21:21;;;;;;;8.85;3.60;;;;;;;;;;7387841;19;20437;-73
2022/11/25 13:24:25;;;;;;;7.60;3.15;;;;;;;;;;7388711;19;20007;-73
2022/11/25 13:26:50;;;;;;;7.75;3.22;;;;;;;;;;7391018;19;20066;-73
2022/11/25 13:29:16;;;;;;;12.60;3.75;;;;;;;;;;7388680;19;20046;-72
2022/11/25 13:32:03;;;;;;;9.55;3.45;;;;;;;;;;7388856;19;20002;-72
2022/11/25 13:34:33;;;;;;;8.05;3.00;;;;;;;;;;7389662;19;20075;-72
2022/11/25 13:37:01;;;;;;;15.15;3.40;;;;;;;;;;7388345;19;20003;-72
2022/11/25 13:39:34;;;;;;;9.30;3.20;;;;;;;;;;7390389;19;19994;-72
2022/11/25 13:42:23;;;;;;;9.38;3.38;;;;;;;;;;7389455;19;19999;-72
2022/11/25 13:44:54;;;;;;;8.68;3.30;;;;;;;;;;7393101;19;20019;-72
2022/11/25 13:47:37;;;;;;;7.65;3.13;;;;;;;;;;7392261;19;20006;-73
2022/11/25 13:50:05;;;;;;;10.82;3.17;;;;;;;;;;7392007;19;19995;-72
2022/11/25 13:52:35;;;;;;;10.45;3.50;;;;;;;;;;7386227;19;19991;-72
2022/11/25 13:55:08;;;;;;;7.03;2.78;;;;;;;;;;7382493;19;20012;-72
2022/11/25 13:57:38;;;;;;;9.43;3.08;;;;;;;;;;7383093;19;20002;-73
2022/11/25 14:00:28;;;;;;;7.38;2.70;;;;;;;;;;7384472;19;20735;-73
2022/11/25 14:03:13;;;;;;;11.45;3.30;;;;;;;;;;7383729;19;20059;-73
2022/11/25 14:06:14;;;;;;;12.77;3.30;;;;;;;;;;7384053;19;20015;-72
2022/11/25 14:08:45;;;;;;;10.57;3.40;;;;;;;;;;7379573;19;20675;-72
2022/11/25 14:11:16;;;;;;;;;;;;;;;;;;7387596;19;20361;-72
2022/11/25 14:14:11;;;;;;;7.63;4.22;;;;;;;;;;7385168;19;19990;-73
2022/11/25 14:17:11;;;;;;;8.35;3.83;;;;;;;;;;7384368;19;20420;-73
2022/11/25 14:19:46;;;;;;;11.23;3.85;;;;;;;;;;7383650;19;20106;-73
2022/11/25 14:22:50;;;;;;;12.00;3.55;;;;;;;;;;7386540;19;20002;-73
2022/11/25 14:25:21;;;;;;;10.85;3.60;;;;;;;;;;7384763;19;20009;-73
2022/11/25 14:27:51;;;;;;;11.80;4.20;;;;;;;;;;7384324;19;19999;-73
2022/11/25 14:30:17;;;;;;;12.25;4.00;;;;;;;;;;7382637;19;20070;-72
2022/11/25 14:32:46;;;;;;;8.73;3.80;;;;;;;;;;7385618;19;20094;-73
2022/11/25 14:35:52;;;;;;;10.48;3.72;;;;;;;;;;7386181;19;20006;-74
2022/11/25 14:38:47;;;;;;;9.50;4.00;;;;;;;;;;7383518;19;19998;-73
2022/11/25 14:41:18;;;;;;;10.20;4.10;;;;;;;;;;7385522;19;19998;-75
2022/11/25 14:43:49;;;;;;;14.02;3.92;;;;;;;;;;7385287;19;20007;-74
2022/11/25 14:46:19;;;;;;;12.05;4.00;;;;;;;;;;7385097;19;20003;-74
2022/11/25 14:48:52;;;;;;;14.32;3.97;;;;;;;;;;7381542;19;19994;-74
2022/11/25 14:51:18;;;;;;;12.57;3.80;;;;;;;;;;7385246;19;20485;-74
2022/11/25 14:53:47;;;;;;;8.18;3.40;;;;;;;;;;7380447;19;20006;-74
2022/11/25 14:56:14;;;;;;;10.40;3.33;;;;;;;;;;7384858;19;20022;-74
2022/11/25 14:58:45;;;;;;;12.38;3.33;;;;;;;;;;7383769;19;20006;-74